• Join FlightAware (Why Join?)
  • Login
  • US Flag 
06:12PM EDT


 

Airport Tracker/Info


-or-


 

Live Flight TrackerFlight Track Log ✈ VRT51 ✈ 16-Aug-2013 ✈ KBHM - KBNA

Flight Track Log - Related Links

Times and Time Zones

All times are in EDT time to prevent confusion due to time zone crossing. See the VRT51 flight status page for this flight to view local times or setup timezone preferences in your user account.

Time Position Orientation Groundspeed Altitude Reporting Facility
EDT Latitude Longitude Course Direction KTS MPH feet Rate Location/Type
05:35PM 40.8225 -74.1164 258° West 195 224 1,200  Level New York Center
05:36PM 40.8100 -74.1956 258° West 230 265 3,200 1,800 Climbing New York Center
05:37PM 40.8075 -74.2775 268° West 258 297 4,900 2,520 Climbing New York Center
05:38PM 40.8042 -74.3897 268° West 276 318 8,300 2,520 Climbing New York Center
05:39PM 40.7994 -74.4744 266° West 293 337 10,000 900 Climbing New York Center
05:40PM 40.7911 -74.6000 265° West 293 337 10,100 540 Climbing New York Center
05:41PM 40.7678 -74.6783 249° West 315 362 11,100 1,440 Climbing New York Center
05:42PM 40.6664 -74.6614 173° South 330 380 13,000 2,160 Climbing New York Center
05:43PM 40.6061 -74.7128 213° Southwest 325 374 15,500 1,980 Climbing New York Center
05:44PM 40.5200 -74.7953 216° Southwest 335 386 17,000 720 Climbing New York Center
05:45PM 40.5122 -74.8983 264° West 289 333 17,000  Level New York Center
05:46PM 40.5481 -75.0044 294° West 294 338 17,000 -120 Level New York Center
05:48PM 40.5084 -75.1329 248° West  Level Estimated
05:55PM 40.2742 -75.8792 248° West  Level Estimated
05:56PM 40.2403 -75.9854 247° West  Level Estimated
05:57PM 40.2063 -76.0915 247° West  Level Estimated
05:58PM 40.1723 -76.1974 247° West  Level Estimated
05:59PM 40.1382 -76.3033 247° West  Level Estimated
06:00PM 40.1039 -76.4090 247° West  Level Estimated
06:01PM 40.0696 -76.5147 247° West  Level Estimated
06:02PM 40.0352 -76.6202 247° West  Level Estimated
06:03PM 40.0006 -76.7257 247° West  Level Estimated
06:04PM 39.9660 -76.8310 247° West  Level Estimated
06:05PM 39.9313 -76.9362 247° West  Level Estimated
06:06PM 39.8965 -77.0414 247° West  Level Estimated
06:07PM 39.8616 -77.1464 247° West  Level Estimated
06:08PM 39.8266 -77.2513 247° West  Level Estimated
06:09PM 39.7915 -77.3561 246° West  Level Estimated
06:10PM 39.7563 -77.4608 246° West  Level Estimated
06:11PM 39.7210 -77.5654 246° West  Level Estimated
06:12PM 39.6856 -77.6699 246° West  Level Estimated
06:13PM 39.6502 -77.7742 246° West  Level Estimated
06:14PM 39.6146 -77.8785 246° West  Level Estimated
06:15PM 39.5789 -77.9826 246° West  Level Estimated
06:16PM 39.5432 -78.0867 246° West  Level Estimated
06:17PM 39.5073 -78.1906 246° West  Level Estimated
06:18PM 39.4714 -78.2945 246° West  Level Estimated
06:19PM 39.4354 -78.3982 246° West  Level Estimated
06:20PM 39.3993 -78.5018 246° West  Level Estimated
06:21PM 39.3630 -78.6053 246° West  Level Estimated
06:22PM 39.3267 -78.7087 246° West  Level Estimated
06:23PM 39.2904 -78.8120 246° West  Level Estimated
06:24PM 39.2539 -78.9152 245° Southwest  Level Estimated
06:25PM 39.2173 -79.0183 245° Southwest  Level Estimated
06:26PM 39.1806 -79.1213 245° Southwest  Level Estimated
06:27PM 39.1438 -79.2242 245° Southwest  Level Estimated
06:28PM 39.1070 -79.3269 245° Southwest  Level Estimated
06:29PM 39.0701 -79.4296 245° Southwest  Level Estimated
06:30PM 39.0330 -79.5321 245° Southwest  Level Estimated
06:31PM 38.9959 -79.6346 245° Southwest  Level Estimated
06:32PM 38.9587 -79.7369 245° Southwest  Level Estimated
06:33PM 38.9214 -79.8391 245° Southwest  Level Estimated
06:34PM 38.8840 -79.9412 245° Southwest  Level Estimated
06:35PM 38.8465 -80.0432 245° Southwest  Level Estimated
06:36PM 38.8090 -80.1451 245° Southwest  Level Estimated
06:37PM 38.7713 -80.2469 245° Southwest  Level Estimated
06:38PM 38.7336 -80.3486 245° Southwest  Level Estimated
06:39PM 38.6958 -80.4502 245° Southwest  Level Estimated
06:40PM 38.6578 -80.5517 244° Southwest  Level Estimated
06:41PM 38.6198 -80.6530 244° Southwest  Level Estimated
06:42PM 38.5817 -80.7543 244° Southwest  Level Estimated
06:43PM 38.5436 -80.8554 244° Southwest  Level Estimated
06:44PM 38.5053 -80.9565 244° Southwest  Level Estimated
06:45PM 38.4670 -81.0574 244° Southwest  Level Estimated
06:46PM 38.4285 -81.1582 244° Southwest  Level Estimated
06:47PM 38.3900 -81.2590 244° Southwest  Level Estimated
06:48PM 38.3514 -81.3596 244° Southwest  Level Estimated
06:49PM 38.3127 -81.4601 244° Southwest  Level Estimated
06:50PM 38.2739 -81.5605 244° Southwest  Level Estimated
06:51PM 38.2350 -81.6608 244° Southwest  Level Estimated
06:52PM 38.1961 -81.7609 244° Southwest  Level Estimated
06:53PM 38.1571 -81.8610 244° Southwest  Level Estimated
06:54PM 38.1179 -81.9610 244° Southwest  Level Estimated
06:55PM 38.0787 -82.0608 244° Southwest  Level Estimated
06:56PM 38.0394 -82.1606 243° Southwest  Level Estimated
06:57PM 38.0000 -82.2602 243° Southwest  Level Estimated
06:58PM 37.9606 -82.3598 243° Southwest  Level Estimated
08:16PM 33.5833 -86.7219 56° Northeast 194 223 1,600  Level Atlanta Center
08:17PM 33.6203 -86.6606 54° Northeast 218 251 5,700 3,540 Climbing Atlanta Center
08:18PM 33.6997 -86.6506 North 228 262 8,700 3,120 Climbing Atlanta Center
08:20PM 33.8972 -86.6208 North 369 425 15,200 3,120 Climbing Memphis Center
08:21PM 34.0156 -86.6008 North 398 458 18,300 1,860 Climbing Memphis Center
08:22PM 34.1361 -86.5831 North 424 488 19,000 300 Climbing Memphis Center
08:23PM 34.2586 -86.5625 North 435 501 19,000  Level Memphis Center
08:24PM 34.3811 -86.5419 North 440 506 19,000  Level Memphis Center
08:25PM 34.5056 -86.5214 North 440 506 19,000  Level Memphis Center
08:26PM 34.6303 -86.5006 North 440 506 19,000  Level Memphis Center
08:27PM 34.7528 -86.4797 North 445 512 19,000  Level Memphis Center
08:28PM 34.8719 -86.4211 22° Northeast 445 512 19,000  Level Memphis Center
08:29PM 34.9753 -86.3303 36° Northeast 443 510 19,000  Level Memphis Center
08:30PM 35.0808 -86.2414 35° Northeast 449 517 19,000 -60 Level Memphis Center
08:31PM 35.1933 -86.1747 26° Northeast 449 517 18,900 -1,200 Descending Memphis Center
08:32PM 35.3133 -86.1458 11° North 436 502 16,700 -2,160 Descending Memphis Center
08:33PM 35.4292 -86.1197 10° North 431 496 14,600 -2,100 Descending Memphis Center
08:34PM 35.5389 -86.0936 11° North 419 482 12,500 -2,280 Descending Memphis Center
08:35PM 35.6522 -86.1108 353° North 378 435 10,100 -1,380 Descending Memphis Center
08:36PM 35.7353 -86.1681 331° Northwest 373 429 9,800 -720 Descending Memphis Center
08:37PM 35.7800 -86.2578 302° West 306 352 8,700 -1,020 Descending Memphis Center
08:38PM 35.8181 -86.3328 302° West 301 346 7,800 -1,080 Descending Memphis Center
08:39PM 35.8606 -86.4203 301° West 295 339 6,600 -1,380 Descending Memphis Center
08:40PM 35.9028 -86.5053 302° West 290 334 5,100 -1,560 Descending Memphis Center
08:41PM 35.9450 -86.5881 302° West 290 334 3,500 -1,440 Descending Memphis Center
08:42PM 35.9867 -86.6578 306° West 270 311 2,300 -900 Descending Memphis Center
08:43PM 36.0275 -86.6972 322° Northwest 211 243 1,800 -480 Descending Memphis Center
08:44PM 36.0631 -86.7058 349° North 151 174 1,400 -600 Descending Memphis Center
08:45PM 36.0981 -86.6914 18° North 121 139 700 -360 Descending Memphis Center
08:46PM 36.1253 -86.6978 349° North 121 139 700  Level Memphis Center
08:50PM 36.1245 -86.6782 90° East  Level Estimated
08:57PM 36.1245 -86.6782 90° East  Level Estimated
08:58PM 36.1245 -86.6782 90° East  Level Estimated
08:59PM 36.1245 -86.6782 90° East  Level Estimated
09:00PM 36.1245 -86.6782 90° East  Level Estimated
09:01PM 36.1245 -86.6782 90° East  Level Estimated
09:02PM 36.1245 -86.6782 90° East  Level Estimated
09:03PM 36.1245 -86.6782 90° East  Level Estimated